createdAt,value
2018-03-27T00:00:40.466Z,91.25
2018-03-27T00:03:06.907Z,103.43
2018-03-27T00:05:33.333Z,108.18
2018-03-27T00:07:59.726Z,88.47
2018-03-27T00:10:26.124Z,99.97
2018-03-27T00:12:52.504Z,104.20
2018-03-27T00:15:18.967Z,87.97
2018-03-27T00:17:45.359Z,112.82
2018-03-27T00:20:11.756Z,91.18
2018-03-27T00:22:38.165Z,96.45
2018-03-27T00:25:04.687Z,94.95
2018-03-27T00:27:49.383Z,92.85
2018-03-27T00:30:34.218Z,103.72
2018-03-27T00:33:19.058Z,94.07
2018-03-27T00:36:03.778Z,108.80
2018-03-27T00:38:48.463Z,90.65
2018-03-27T00:44:47.628Z,103.30
2018-03-27T00:47:14.088Z,99.05
2018-03-27T00:49:40.572Z,109.25
2018-03-27T00:52:06.968Z,96.90
2018-03-27T00:54:33.433Z,95.00
2018-03-27T00:56:59.808Z,95.38
2018-03-27T00:59:26.211Z,105.00
2018-03-27T01:01:52.660Z,91.22
2018-03-27T01:04:19.106Z,89.40
2018-03-27T01:06:45.555Z,83.68
2018-03-27T01:09:12.001Z,86.93
2018-03-27T01:11:39.194Z,91.95
2018-03-27T01:14:05.618Z,81.45
2018-03-27T01:16:32.023Z,85.45
2018-03-27T01:18:58.474Z,88.15
2018-03-27T01:21:24.904Z,91.40
2018-03-27T01:23:51.325Z,87.78
2018-03-27T01:26:18.491Z,84.10
2018-03-27T01:28:45.730Z,82.97
2018-03-27T01:31:12.161Z,73.40
2018-03-27T01:33:39.270Z,83.18
2018-03-27T01:36:05.711Z,68.05
2018-03-27T01:38:32.875Z,80.95
2018-03-27T01:40:59.998Z,81.90
2018-03-27T01:43:26.448Z,75.93
2018-03-27T01:45:53.619Z,66.35
2018-03-27T01:48:20.043Z,77.65
2018-03-27T01:50:46.444Z,78.95
2018-03-27T01:53:12.869Z,74.82
2018-03-27T01:55:39.347Z,64.72
2018-03-27T01:58:05.772Z,71.60
2018-03-27T02:00:32.165Z,74.55
2018-03-27T02:02:58.558Z,74.57
2018-03-27T02:05:24.927Z,74.82
2018-03-27T02:07:51.334Z,75.78
2018-03-27T02:10:17.710Z,83.85
2018-03-27T02:12:50.803Z,73.28
2018-03-27T02:15:24.027Z,74.28
2018-03-27T02:17:56.438Z,73.87
2018-03-27T02:20:28.950Z,84.90
2018-03-27T02:23:00.311Z,70.72
2018-03-27T02:25:26.714Z,77.90
2018-03-27T02:27:53.851Z,81.87
2018-03-27T02:30:20.243Z,70.45
2018-03-27T02:32:46.662Z,75.80
2018-03-27T02:35:13.164Z,69.30
2018-03-27T02:37:39.571Z,76.90
2018-03-27T02:40:06.058Z,81.35
2018-03-27T02:42:32.472Z,74.00
2018-03-27T02:44:58.858Z,76.65
2018-03-27T02:47:25.233Z,81.90
2018-03-27T02:49:51.641Z,72.20
2018-03-27T02:52:18.779Z,87.03
2018-03-27T02:54:45.209Z,68.57
2018-03-27T02:57:11.645Z,70.95
2018-03-27T02:59:38.188Z,77.40
2018-03-27T03:02:04.653Z,72.70
2018-03-27T03:04:31.140Z,67.40
2018-03-27T03:06:57.595Z,79.12
2018-03-27T03:09:24.821Z,84.87
2018-03-27T03:11:51.991Z,80.72
2018-03-27T03:14:18.421Z,83.55
2018-03-27T03:16:45.606Z,69.35
2018-03-27T03:19:12.018Z,75.57
2018-03-27T03:21:38.428Z,81.53
2018-03-27T03:24:05.546Z,81.03
2018-03-27T03:26:32.056Z,86.18
2018-03-27T03:28:58.426Z,89.97
2018-03-27T03:31:24.811Z,71.12
2018-03-27T03:33:51.200Z,88.18
2018-03-27T03:36:18.320Z,83.70
2018-03-27T03:38:44.738Z,77.53
2018-03-27T03:41:11.169Z,76.65
2018-03-27T03:43:37.661Z,77.85
2018-03-27T03:46:04.057Z,70.05
2018-03-27T03:48:30.469Z,80.50
2018-03-27T03:50:56.905Z,81.43
2018-03-27T03:53:23.342Z,71.22
2018-03-27T03:55:49.708Z,79.43
2018-03-27T03:58:16.802Z,82.32
2018-03-27T04:00:43.234Z,81.40
2018-03-27T04:03:09.589Z,80.82
2018-03-27T04:05:36.085Z,69.40
2018-03-27T04:08:02.495Z,74.43
2018-03-27T04:10:28.921Z,71.75
2018-03-27T04:12:55.315Z,68.97
2018-03-27T04:15:21.791Z,74.28
2018-03-27T04:17:48.261Z,75.30
2018-03-27T04:20:14.691Z,74.28
2018-03-27T04:22:41.090Z,62.78
2018-03-27T04:25:07.488Z,80.75
2018-03-27T04:27:34.697Z,76.72
2018-03-27T04:30:01.186Z,79.05
2018-03-27T04:32:27.569Z,73.45
2018-03-27T04:34:53.961Z,87.00
2018-03-27T04:37:20.346Z,85.50
2018-03-27T04:39:46.741Z,76.75
2018-03-27T04:42:13.911Z,72.10
2018-03-27T04:44:41.272Z,75.97
2018-03-27T04:47:07.641Z,67.78
2018-03-27T04:49:34.052Z,73.93
2018-03-27T04:52:01.299Z,78.45
2018-03-27T04:54:27.699Z,79.05
2018-03-27T04:56:54.177Z,74.03
2018-03-27T04:59:21.281Z,72.40
2018-03-27T05:01:47.686Z,79.05
2018-03-27T05:04:14.829Z,78.25
2018-03-27T05:06:41.255Z,80.50
2018-03-27T05:09:07.726Z,69.72
2018-03-27T05:11:34.131Z,75.93
2018-03-27T05:14:01.547Z,76.32
2018-03-27T05:16:28.656Z,74.00
2018-03-27T05:18:55.046Z,77.40
2018-03-27T05:21:22.165Z,71.60
2018-03-27T05:23:48.589Z,69.87
2018-03-27T05:26:15.011Z,70.30
2018-03-27T05:28:41.380Z,76.95
2018-03-27T05:31:07.879Z,73.22
2018-03-27T05:33:34.277Z,85.85
2018-03-27T05:36:00.700Z,76.65
2018-03-27T05:38:27.094Z,76.87
2018-03-27T05:40:53.511Z,80.05
2018-03-27T05:43:19.925Z,73.43
2018-03-27T05:45:46.422Z,82.07
2018-03-27T05:48:12.800Z,84.93
2018-03-27T05:50:39.203Z,70.93
2018-03-27T05:53:05.640Z,75.65
2018-03-27T05:55:32.056Z,83.18
2018-03-27T05:57:58.450Z,74.10
2018-03-27T06:00:25.639Z,71.00
2018-03-27T06:02:52.023Z,76.15
2018-03-27T06:05:18.433Z,70.80
2018-03-27T06:07:44.828Z,80.15
2018-03-27T06:10:11.238Z,71.62
2018-03-27T06:12:37.642Z,72.82
2018-03-27T06:15:04.074Z,83.18
2018-03-27T06:17:30.494Z,83.90
2018-03-27T06:19:56.926Z,66.35
2018-03-27T06:22:23.334Z,73.07
2018-03-27T06:24:49.723Z,62.92
2018-03-27T06:27:16.196Z,82.30
2018-03-27T06:29:42.605Z,64.43
2018-03-27T06:32:09.807Z,74.97
2018-03-27T06:34:36.185Z,72.82
2018-03-27T06:37:02.612Z,72.55
2018-03-27T06:39:29.875Z,79.30
2018-03-27T06:41:56.296Z,76.37
2018-03-27T06:44:22.746Z,80.40
2018-03-27T06:46:49.152Z,69.97
2018-03-27T06:49:15.573Z,61.35
2018-03-27T06:51:42.713Z,69.57
2018-03-27T06:54:09.841Z,69.20
2018-03-27T06:56:36.267Z,71.22
2018-03-27T06:59:02.764Z,60.05
2018-03-27T07:01:29.923Z,72.60
2018-03-27T07:03:56.376Z,74.62
2018-03-27T07:06:22.858Z,66.62
2018-03-27T07:08:49.312Z,59.42
2018-03-27T07:11:15.725Z,76.53
2018-03-27T07:13:42.132Z,70.65
2018-03-27T07:16:09.460Z,80.07
2018-03-27T07:18:35.843Z,64.25
2018-03-27T07:21:02.240Z,68.05
2018-03-27T07:23:29.432Z,68.07
2018-03-27T07:25:55.786Z,62.65
2018-03-27T07:28:22.234Z,63.15
2018-03-27T07:30:48.625Z,69.40
2018-03-27T07:33:15.006Z,62.95
2018-03-27T07:35:41.407Z,64.80
2018-03-27T07:38:08.679Z,63.67
2018-03-27T07:40:35.135Z,61.83
2018-03-27T07:43:01.591Z,65.12
2018-03-27T07:45:28.053Z,55.42
2018-03-27T07:47:54.429Z,58.63
2018-03-27T07:50:21.547Z,65.10
2018-03-27T07:52:47.936Z,62.40
2018-03-27T07:55:14.309Z,61.50
2018-03-27T07:57:40.689Z,56.37
2018-03-27T08:00:07.072Z,62.17
2018-03-27T08:02:33.495Z,54.83
2018-03-27T08:04:59.906Z,50.78
2018-03-27T08:07:26.331Z,57.47
2018-03-27T08:09:52.705Z,63.53
2018-03-27T08:12:19.139Z,50.42
2018-03-27T08:14:45.539Z,52.17
2018-03-27T08:17:11.953Z,41.78
2018-03-27T08:19:38.342Z,45.53
2018-03-27T08:22:05.486Z,46.80
2018-03-27T08:24:31.890Z,59.65
2018-03-27T08:26:58.286Z,48.28
2018-03-27T08:29:24.710Z,45.72
2018-03-27T08:31:51.118Z,36.40
2018-03-27T08:34:18.257Z,32.38
2018-03-27T08:36:44.682Z,34.33
2018-03-27T08:39:11.361Z,33.42
2018-03-27T08:41:37.806Z,31.85
2018-03-27T08:44:04.226Z,30.88
2018-03-27T08:46:30.669Z,30.30
2018-03-27T08:48:57.135Z,28.77
2018-03-27T08:51:23.512Z,29.80
2018-03-27T08:53:49.968Z,40.03
2018-03-27T08:56:16.391Z,35.85
2018-03-27T08:58:42.820Z,37.72
2018-03-27T09:01:09.433Z,47.35
2018-03-27T09:03:35.838Z,43.35
2018-03-27T09:06:02.306Z,31.40
2018-03-27T09:08:28.762Z,32.95
2018-03-27T09:10:55.235Z,39.28
2018-03-27T09:13:21.639Z,33.53
2018-03-27T09:15:48.790Z,28.75
2018-03-27T09:18:15.226Z,33.97
2018-03-27T09:20:41.677Z,35.15
2018-03-27T09:23:08.125Z,38.17
2018-03-27T09:25:35.237Z,27.75
2018-03-27T09:28:01.681Z,29.00
2018-03-27T09:30:28.066Z,33.08
2018-03-27T09:32:54.474Z,26.62
2018-03-27T09:35:21.643Z,22.45
2018-03-27T09:37:48.065Z,20.88
2018-03-27T09:40:14.488Z,25.80
2018-03-27T09:42:41.600Z,24.45
2018-03-27T09:45:08.017Z,30.90
2018-03-27T09:47:34.417Z,22.33
2018-03-27T09:50:00.834Z,24.55
2018-03-27T09:52:27.322Z,23.48
2018-03-27T09:54:53.720Z,15.90
2018-03-27T09:57:20.272Z,22.10
2018-03-27T09:59:46.678Z,17.15
2018-03-27T10:02:13.073Z,16.23
2018-03-27T10:04:40.245Z,20.77
2018-03-27T10:07:06.660Z,22.27
2018-03-27T10:09:33.825Z,16.70
2018-03-27T10:12:00.202Z,15.25
2018-03-27T10:14:26.599Z,20.70
2018-03-27T10:16:53.040Z,14.10
2018-03-27T10:19:19.441Z,18.65
2018-03-27T10:21:46.667Z,21.90
2018-03-27T10:24:13.071Z,17.00
2018-03-27T10:26:39.475Z,21.15
2018-03-27T10:29:05.850Z,22.37
2018-03-27T10:31:32.278Z,21.00
2018-03-27T10:33:58.716Z,25.52
2018-03-27T10:36:25.158Z,24.67
2018-03-27T10:38:52.387Z,16.58
2018-03-27T10:41:18.801Z,20.52
2018-03-27T10:43:45.262Z,21.48
2018-03-27T10:46:11.677Z,20.62
2018-03-27T10:48:38.110Z,20.85
2018-03-27T10:51:04.484Z,22.23
2018-03-27T10:53:30.939Z,22.62
2018-03-27T10:55:57.374Z,22.23
2018-03-27T10:58:23.784Z,26.67
2018-03-27T11:00:50.178Z,26.15
2018-03-27T11:03:16.594Z,25.73
2018-03-27T11:05:42.963Z,25.15
2018-03-27T11:08:10.063Z,26.15
2018-03-27T11:10:36.471Z,25.90
2018-03-27T11:13:02.912Z,24.05
2018-03-27T11:15:29.629Z,27.73
2018-03-27T11:17:56.008Z,27.73
2018-03-27T11:20:22.413Z,24.85
2018-03-27T11:22:48.847Z,24.55
2018-03-27T11:25:15.427Z,21.85
2018-03-27T11:27:42.576Z,22.42
2018-03-27T11:30:08.954Z,26.45
2018-03-27T11:32:35.371Z,26.80
2018-03-27T11:35:01.775Z,26.60
2018-03-27T11:37:28.905Z,27.58
2018-03-27T11:39:55.369Z,22.65
2018-03-27T11:42:21.825Z,32.05
2018-03-27T11:44:48.194Z,23.75
2018-03-27T11:47:15.475Z,24.33
2018-03-27T11:49:41.881Z,21.42
2018-03-27T11:52:08.308Z,27.98
2018-03-27T11:54:34.756Z,32.42
2018-03-27T11:57:01.361Z,24.92
2018-03-27T11:59:27.766Z,24.30
2018-03-27T12:01:54.146Z,22.73
2018-03-27T12:04:21.383Z,22.92
2018-03-27T12:06:48.529Z,27.33
2018-03-27T12:09:14.969Z,17.65
2018-03-27T12:11:41.362Z,18.30
2018-03-27T12:14:07.786Z,21.45
2018-03-27T12:16:34.226Z,22.25
2018-03-27T12:19:00.615Z,20.42
2018-03-27T12:21:27.756Z,20.83
2018-03-27T12:23:54.983Z,18.50
2018-03-27T12:26:21.358Z,23.83
2018-03-27T12:28:47.732Z,22.30
2018-03-27T12:31:14.906Z,19.35
2018-03-27T12:33:41.306Z,19.37
2018-03-27T12:36:07.806Z,20.08
2018-03-27T12:38:34.295Z,17.60
2018-03-27T12:41:00.680Z,18.75
2018-03-27T12:43:27.066Z,11.48
2018-03-27T12:45:53.494Z,18.05
2018-03-27T12:48:19.898Z,13.38
2018-03-27T12:50:46.309Z,15.00
2018-03-27T12:53:12.815Z,17.52
2018-03-27T12:55:39.187Z,14.65
2018-03-27T12:58:05.607Z,22.95
2018-03-27T13:00:31.989Z,17.50
2018-03-27T13:02:59.154Z,19.08
2018-03-27T13:05:26.260Z,15.80
2018-03-27T13:07:52.670Z,16.50
2018-03-27T13:10:19.099Z,18.30
2018-03-27T13:12:45.593Z,14.00
2018-03-27T13:15:12.758Z,14.30
2018-03-27T13:17:39.211Z,15.48
2018-03-27T13:20:06.386Z,18.62
2018-03-27T13:22:32.786Z,19.80
2018-03-27T13:24:59.222Z,16.73
2018-03-27T13:27:25.637Z,12.68
2018-03-27T13:29:52.038Z,16.12
2018-03-27T13:32:18.437Z,14.87
2018-03-27T13:34:44.850Z,21.37
2018-03-27T13:37:11.298Z,17.55
2018-03-27T13:39:37.740Z,17.08
2018-03-27T13:42:04.197Z,18.15
2018-03-27T13:44:30.735Z,20.92
2018-03-27T13:46:57.899Z,15.98
2018-03-27T13:49:24.341Z,13.02
2018-03-27T13:51:50.785Z,15.25
2018-03-27T13:54:17.198Z,16.17
2018-03-27T13:56:43.615Z,16.33
2018-03-27T13:59:10.816Z,16.50
2018-03-27T14:01:37.998Z,16.33
2018-03-27T14:04:04.421Z,16.25
2018-03-27T14:06:30.814Z,15.95
2018-03-27T14:08:57.313Z,18.08
2018-03-27T14:11:24.491Z,14.38
2018-03-27T14:13:50.914Z,14.93
2018-03-27T14:16:17.335Z,21.25
2018-03-27T14:18:43.770Z,13.60
2018-03-27T14:21:10.216Z,15.32
2018-03-27T14:23:36.912Z,19.12
2018-03-27T14:26:03.355Z,16.90
2018-03-27T14:28:30.517Z,20.60
2018-03-27T14:30:56.959Z,12.77
2018-03-27T14:33:23.392Z,18.30
2018-03-27T14:35:49.807Z,12.95
2018-03-27T14:38:17.044Z,16.35
2018-03-27T14:40:43.531Z,14.07
2018-03-27T14:43:10.062Z,18.58
2018-03-27T14:45:36.526Z,22.20
2018-03-27T14:48:02.945Z,22.90
2018-03-27T14:50:29.426Z,16.75
2018-03-27T14:52:55.867Z,14.25
2018-03-27T14:55:22.318Z,20.50
2018-03-27T14:57:48.770Z,13.32
2018-03-27T15:00:15.919Z,15.02
2018-03-27T15:02:42.370Z,16.65
2018-03-27T15:05:09.526Z,20.55
2018-03-27T15:07:35.975Z,12.50
2018-03-27T15:10:02.480Z,17.10
2018-03-27T15:12:28.835Z,15.73
2018-03-27T15:14:56.027Z,17.23
2018-03-27T15:17:22.522Z,24.55
2018-03-27T15:19:49.670Z,15.38
2018-03-27T15:22:16.859Z,20.30
2018-03-27T15:24:44.047Z,17.87
2018-03-27T15:27:10.427Z,14.85
2018-03-27T15:29:36.881Z,14.07
2018-03-27T15:32:03.338Z,20.05
2018-03-27T15:34:30.522Z,18.30
2018-03-27T15:36:57.042Z,20.90
2018-03-27T15:39:24.212Z,18.92
2018-03-27T15:41:50.689Z,18.58
2018-03-27T15:44:17.052Z,15.05
2018-03-27T15:46:44.190Z,18.45
2018-03-27T15:49:11.353Z,23.05
2018-03-27T15:51:38.532Z,16.83
2018-03-27T15:54:04.954Z,20.02
2018-03-27T15:56:31.415Z,17.23
2018-03-27T15:58:57.823Z,18.87
2018-03-27T16:01:24.256Z,16.05
2018-03-27T16:03:50.646Z,20.40
2018-03-27T16:06:17.088Z,18.05
2018-03-27T16:08:44.318Z,15.60
2018-03-27T16:11:11.493Z,19.37
2018-03-27T16:13:38.677Z,19.52
2018-03-27T16:16:05.135Z,20.70
2018-03-27T16:18:31.568Z,19.37
2018-03-27T16:20:58.036Z,24.80
2018-03-27T16:23:24.472Z,17.40
2018-03-27T16:25:51.627Z,19.15
2018-03-27T16:28:18.047Z,24.15
2018-03-27T16:30:44.513Z,21.95
2018-03-27T16:33:10.999Z,21.10
2018-03-27T16:35:38.172Z,20.27
2018-03-27T16:38:04.607Z,22.90
2018-03-27T16:40:31.098Z,22.52
2018-03-27T16:42:57.519Z,19.95
2018-03-27T16:45:23.882Z,23.55
2018-03-27T16:47:51.232Z,22.13
2018-03-27T16:50:17.687Z,19.17
2018-03-27T16:52:44.067Z,21.73
2018-03-27T16:55:10.547Z,19.65
2018-03-27T16:57:37.660Z,22.95
2018-03-27T17:00:04.284Z,20.73
2018-03-27T17:02:30.687Z,18.95
2018-03-27T17:04:57.138Z,21.58
2018-03-27T17:07:23.562Z,19.48
2018-03-27T17:09:50.006Z,25.70
2018-03-27T17:12:16.470Z,19.00
2018-03-27T17:14:43.659Z,21.87
2018-03-27T17:17:10.162Z,22.23
2018-03-27T17:19:36.601Z,20.40
2018-03-27T17:22:03.077Z,17.55
2018-03-27T17:24:29.457Z,21.25
2018-03-27T17:26:55.883Z,17.50
2018-03-27T17:29:23.082Z,20.75
2018-03-27T17:31:49.528Z,19.77
2018-03-27T17:34:15.958Z,29.80
2018-03-27T17:36:42.367Z,26.30
2018-03-27T17:39:08.871Z,22.92
2018-03-27T17:41:35.507Z,27.33
2018-03-27T17:44:01.912Z,27.92
2018-03-27T17:46:28.346Z,23.75
2018-03-27T17:48:54.883Z,24.00
2018-03-27T17:51:22.098Z,22.42
2018-03-27T17:53:48.504Z,20.00
2018-03-27T17:56:14.975Z,27.17
2018-03-27T17:58:42.272Z,32.13
2018-03-27T18:01:08.732Z,20.67
2018-03-27T18:03:35.169Z,22.35
2018-03-27T18:06:01.684Z,28.73
2018-03-27T18:08:28.118Z,22.87
2018-03-27T18:10:54.519Z,25.48
2018-03-27T18:13:21.667Z,18.85
2018-03-27T18:15:48.823Z,30.23
2018-03-27T18:18:16.020Z,29.00
2018-03-27T18:20:42.468Z,28.23
2018-03-27T18:23:08.915Z,21.10
2018-03-27T18:25:35.334Z,27.33
2018-03-27T18:28:01.812Z,30.27
2018-03-27T18:30:28.286Z,25.52
2018-03-27T18:32:54.789Z,28.55
2018-03-27T18:35:21.256Z,24.48
2018-03-27T18:37:47.677Z,27.65
2018-03-27T18:40:14.162Z,28.33
2018-03-27T18:42:40.595Z,26.90
2018-03-27T18:45:07.263Z,28.17
2018-03-27T18:47:33.868Z,23.83
2018-03-27T18:50:00.487Z,23.62
2018-03-27T18:52:27.010Z,43.15
2018-03-27T18:54:53.737Z,30.45
2018-03-27T18:57:20.208Z,32.88
2018-03-27T18:59:46.706Z,36.70
2018-03-27T19:02:13.176Z,31.17
2018-03-27T19:04:39.694Z,32.50
2018-03-27T19:07:07.449Z,26.17
2018-03-27T19:09:34.651Z,23.83
2018-03-27T19:12:01.167Z,36.67
2018-03-27T19:14:27.744Z,34.15
2018-03-27T19:16:54.209Z,32.75
2018-03-27T19:19:21.466Z,31.48
2018-03-27T19:21:48.756Z,26.90
2018-03-27T19:24:15.266Z,37.97
2018-03-27T19:26:41.760Z,41.10
2018-03-27T19:29:08.237Z,46.30
2018-03-27T19:31:34.691Z,34.65
2018-03-27T19:34:01.211Z,33.17
2018-03-27T19:36:27.718Z,30.75
2018-03-27T19:38:54.177Z,31.23
2018-03-27T19:41:20.712Z,43.83
2018-03-27T19:43:47.277Z,35.10
2018-03-27T19:46:13.725Z,35.90
2018-03-27T19:48:41.108Z,44.00
2018-03-27T19:51:07.608Z,41.30
2018-03-27T19:53:34.088Z,32.65
2018-03-27T19:56:00.524Z,36.03
2018-03-27T19:58:26.953Z,28.38
2018-03-27T20:00:53.458Z,34.85
2018-03-27T20:03:20.731Z,32.78
2018-03-27T20:05:47.267Z,33.17
2018-03-27T20:08:13.886Z,30.02
2018-03-27T20:10:40.450Z,28.52
2018-03-27T20:13:06.981Z,37.38
2018-03-27T20:15:41.704Z,26.62
2018-03-27T20:18:00.085Z,36.13
2018-03-27T20:20:26.580Z,31.00
2018-03-27T20:22:53.036Z,38.08
2018-03-27T20:25:19.493Z,30.27
2018-03-27T20:27:46.732Z,38.45
2018-03-27T20:30:13.223Z,38.03
2018-03-27T20:32:39.710Z,35.13
2018-03-27T20:35:06.238Z,30.98
2018-03-27T20:37:32.754Z,29.12
2018-03-27T20:39:59.165Z,33.85
2018-03-27T20:42:25.641Z,28.10
2018-03-27T20:44:52.149Z,31.83
2018-03-27T20:47:18.976Z,29.63
2018-03-27T20:49:45.509Z,34.45
2018-03-27T20:52:12.065Z,30.83
2018-03-27T20:54:38.589Z,32.80
2018-03-27T20:57:05.063Z,39.88
2018-03-27T20:59:32.272Z,39.10
2018-03-27T21:01:58.802Z,31.83
2018-03-27T21:04:25.338Z,34.13
2018-03-27T21:06:51.785Z,37.25
2018-03-27T21:09:18.257Z,39.35
2018-03-27T21:11:45.465Z,39.95
2018-03-27T21:14:11.961Z,37.78
2018-03-27T21:16:38.503Z,37.40
2018-03-27T21:19:05.038Z,34.47
2018-03-27T21:21:31.539Z,33.45
2018-03-27T21:23:58.022Z,37.17
2018-03-27T21:26:24.480Z,35.97
2018-03-27T21:28:51.040Z,32.15
2018-03-27T21:31:18.369Z,35.30
2018-03-27T21:33:44.862Z,46.20
2018-03-27T21:36:11.438Z,27.08
2018-03-27T21:38:38.065Z,28.38
2018-03-27T21:41:05.330Z,29.87
2018-03-27T21:43:31.912Z,34.35
2018-03-27T21:45:58.531Z,33.55
2018-03-27T21:48:25.001Z,32.25
2018-03-27T21:50:51.516Z,31.73
2018-03-27T21:53:18.405Z,42.20
2018-03-27T21:55:44.942Z,33.60
2018-03-27T21:58:11.584Z,32.58
2018-03-27T22:00:38.073Z,33.95
2018-03-27T22:03:04.615Z,33.58
2018-03-27T22:05:31.130Z,34.60
2018-03-27T22:07:58.643Z,31.10
2018-03-27T22:10:25.884Z,32.80
2018-03-27T22:12:52.349Z,29.60
2018-03-27T22:15:18.884Z,30.85
2018-03-27T22:17:45.368Z,26.92
2018-03-27T22:20:11.991Z,23.92
2018-03-27T22:22:38.590Z,27.75
2018-03-27T22:25:05.407Z,24.33
2018-03-27T22:27:31.859Z,28.65
2018-03-27T22:29:58.488Z,25.33
2018-03-27T22:32:25.090Z,21.52
2018-03-27T22:34:51.552Z,24.00
2018-03-27T22:37:18.224Z,32.33
2018-03-27T22:39:44.717Z,30.40
2018-03-27T22:42:12.144Z,27.80
2018-03-27T22:44:38.613Z,27.08
2018-03-27T22:47:05.158Z,30.05
2018-03-27T22:49:31.613Z,25.67
2018-03-27T22:51:58.131Z,28.30
2018-03-27T22:54:25.519Z,26.60
2018-03-27T22:56:52.791Z,18.73
2018-03-27T22:59:20.083Z,23.55
2018-03-27T23:01:46.557Z,23.58
2018-03-27T23:04:13.780Z,27.62
2018-03-27T23:06:40.300Z,22.52
2018-03-27T23:09:06.869Z,24.65
2018-03-27T23:11:33.410Z,21.87
2018-03-27T23:13:59.900Z,25.37
2018-03-27T23:16:26.422Z,23.45
2018-03-27T23:18:52.919Z,17.35
2018-03-27T23:21:19.443Z,19.23
2018-03-27T23:23:45.857Z,21.33
2018-03-27T23:26:12.280Z,21.10
2018-03-27T23:28:38.723Z,21.52
2018-03-27T23:31:05.178Z,23.98
2018-03-27T23:33:31.681Z,22.15
2018-03-27T23:35:58.116Z,22.23
2018-03-27T23:38:24.551Z,18.77
2018-03-27T23:40:51.056Z,20.10
2018-03-27T23:43:18.260Z,23.20
2018-03-27T23:45:44.702Z,19.23
2018-03-27T23:48:11.097Z,17.12
2018-03-27T23:50:37.490Z,18.52
2018-03-27T23:53:04.682Z,21.45
2018-03-27T23:55:31.169Z,17.73
2018-03-27T23:57:57.596Z,19.02
